Wetterdaten: Woche 01.04.13 - 07.04.13 (KW14)
Datum Zeit Temp. A. Feuchte A. Luftdruck Regen Wind Richtung Taupunkt Windchill Windben
01.04.2013 00:00 0,6 C 83 % 1007,7 hPa 0,0 l/m 6,3 km/h N -2,0 C 0,1 C 18,1 km/h
01.04.2013 01:00 0,2 C 82 % 1007,9 hPa 0,0 l/m 4,7 km/h N -2,6 C 0,2 C 12,9 km/h
01.04.2013 02:00 0,0 C 80 % 1007,9 hPa 0,0 l/m 7,0 km/h N -3,0 C -0,6 C 18,1 km/h
01.04.2013 03:00 -0,3 C 80 % 1008,0 hPa 0,0 l/m 6,1 km/h N -3,3 C -0,5 C 16,1 km/h
01.04.2013 04:00 -0,4 C 80 % 1008,3 hPa 0,0 l/m 4,6 km/h N -3,4 C -0,4 C 13,7 km/h
01.04.2013 05:00 -0,3 C 80 % 1008,5 hPa 0,0 l/m 5,9 km/h N -3,4 C -0,5 C 13,3 km/h
01.04.2013 06:00 -0,3 C 80 % 1008,8 hPa 0,0 l/m 5,5 km/h N -3,4 C -0,4 C 14,1 km/h
01.04.2013 07:00 -0,4 C 79 % 1009,1 hPa 0,0 l/m 4,4 km/h N -3,5 C -0,4 C 9,7 km/h
01.04.2013 08:00 0,3 C 76 % 1009,3 hPa 0,0 l/m 5,9 km/h N -3,4 C -0,1 C 12,9 km/h
01.04.2013 09:00 1,4 C 73 % 1009,5 hPa 0,0 l/m 6,2 km/h N -3,0 C 1,1 C 15,3 km/h
01.04.2013 10:00 2,3 C 69 % 1009,7 hPa 0,0 l/m 7,3 km/h N -2,7 C 1,5 C 17,3 km/h
01.04.2013 11:00 3,4 C 65 % 1009,7 hPa 0,0 l/m 6,7 km/h N -2,7 C 3,1 C 16,5 km/h
01.04.2013 12:00 4,2 C 64 % 1009,5 hPa 0,0 l/m 7,4 km/h N -2,0 C 3,2 C 17,3 km/h
01.04.2013 13:00 4,6 C 58 % 1009,5 hPa 0,0 l/m 5,4 km/h N -2,9 C 4,6 C 17,7 km/h
01.04.2013 14:00 3,8 C 60 % 1009,8 hPa 0,0 l/m 2,4 km/h N -3,4 C 3,8 C 8,9 km/h
01.04.2013 15:00 3,8 C 63 % 1010,0 hPa 0,0 l/m 1,1 km/h N -2,6 C 3,8 C 5,2 km/h
01.04.2013 16:00 3,7 C 65 % 1010,2 hPa 0,0 l/m 1,0 km/h N -2,2 C 3,7 C 5,2 km/h
01.04.2013 17:00 3,4 C 66 % 1010,3 hPa 0,0 l/m 1,6 km/h N -2,3 C 3,4 C 8,1 km/h
01.04.2013 18:00 3,1 C 72 % 1010,4 hPa 0,0 l/m 1,2 km/h N -1,5 C 3,1 C 9,3 km/h
01.04.2013 19:00 2,7 C 75 % 1010,5 hPa 0,0 l/m 0,2 km/h N -1,3 C 2,7 C 3,6 km/h
01.04.2013 20:00 2,4 C 78 % 1011,1 hPa 0,0 l/m 0,1 km/h N -1,1 C 2,4 C 2,4 km/h
01.04.2013 21:00 2,2 C 76 % 1011,3 hPa 0,0 l/m 0,1 km/h N -1,6 C 2,2 C 2,8 km/h
01.04.2013 22:00 2,1 C 74 % 1011,3 hPa 0,0 l/m 0,0 km/h N -2,0 C 2,1 C 2,0 km/h
01.04.2013 23:00 2,1 C 74 % 1011,2 hPa 0,0 l/m 0,1 km/h N -2,1 C 2,1 C 2,0 km/h
02.04.2013 00:00 2,0 C 75 % 1010,9 hPa 0,0 l/m 0,0 km/h N -2,0 C 2,0 C 0,8 km/h
02.04.2013 01:00 1,8 C 77 % 1010,7 hPa 0,0 l/m 0,0 km/h N -1,8 C 1,8 C 0,8 km/h
02.04.2013 02:00 1,7 C 79 % 1010,3 hPa 0,0 l/m 0,0 km/h N -1,5 C 1,7 C 0,0 km/h
02.04.2013 03:00 1,6 C 79 % 1010,0 hPa 0,0 l/m 0,4 km/h N -1,7 C 1,6 C 4,0 km/h
02.04.2013 04:00 1,7 C 76 % 1009,7 hPa 0,0 l/m 2,1 km/h N -2,1 C 1,7 C 7,2 km/h
02.04.2013 05:00 1,6 C 75 % 1009,4 hPa 0,0 l/m 2,7 km/h N -2,4 C 1,6 C 13,7 km/h
02.04.2013 06:00 1,3 C 74 % 1009,5 hPa 0,0 l/m 3,5 km/h N -2,8 C 1,3 C 11,7 km/h
02.04.2013 07:00 1,3 C 75 % 1009,7 hPa 0,0 l/m 4,3 km/h N -2,7 C 1,3 C 12,5 km/h
02.04.2013 08:00 1,3 C 76 % 1010,0 hPa 0,0 l/m 2,3 km/h N -2,5 C 1,3 C 8,9 km/h
02.04.2013 09:00 1,4 C 77 % 1010,2 hPa 0,0 l/m 0,7 km/h N -2,2 C 1,4 C 5,2 km/h
02.04.2013 10:00 1,9 C 78 % 1010,2 hPa 0,0 l/m 1,6 km/h N -1,6 C 1,9 C 8,0 km/h
02.04.2013 11:00 2,5 C 81 % 1010,0 hPa 0,0 l/m 2,4 km/h N -0,5 C 2,5 C 13,3 km/h
02.04.2013 12:00 2,8 C 84 % 1009,6 hPa 0,0 l/m 0,4 km/h N 0,3 C 2,8 C 4,4 km/h
02.04.2013 13:00 2,9 C 84 % 1009,4 hPa 0,0 l/m 0,4 km/h N 0,5 C 2,9 C 4,4 km/h
02.04.2013 14:00 3,1 C 82 % 1008,9 hPa 0,0 l/m 2,5 km/h N 0,2 C 3,1 C 8,1 km/h
02.04.2013 15:00 3,5 C 72 % 1008,9 hPa 0,0 l/m 4,6 km/h N -1,1 C 3,5 C 12,5 km/h
02.04.2013 16:00 3,4 C 71 % 1009,0 hPa 0,0 l/m 6,0 km/h N -1,5 C 3,3 C 14,5 km/h
02.04.2013 17:00 3,3 C 72 % 1009,2 hPa 0,0 l/m 5,7 km/h N -1,3 C 3,3 C 16,5 km/h
02.04.2013 18:00 3,1 C 72 % 1009,4 hPa 0,0 l/m 4,8 km/h N -1,5 C 3,1 C 12,5 km/h
02.04.2013 19:00 2,5 C 77 % 1009,8 hPa 0,3 l/m 6,9 km/h N -1,1 C 1,6 C 16,9 km/h
02.04.2013 20:00 1,3 C 84 % 1010,0 hPa 0,3 l/m 5,2 km/h N -1,1 C 1,2 C 11,7 km/h
02.04.2013 21:00 1,0 C 85 % 1010,1 hPa 0,0 l/m 5,6 km/h N -1,3 C 0,9 C 14,9 km/h
02.04.2013 22:00 1,0 C 85 % 1009,8 hPa 0,0 l/m 6,4 km/h N -1,2 C 0,7 C 14,1 km/h
02.04.2013 23:00 1,2 C 84 % 1009,2 hPa 0,0 l/m 7,5 km/h N -1,3 C 0,2 C 20,5 km/h
03.04.2013 00:00 1,3 C 80 % 1008,8 hPa 0,0 l/m 8,8 km/h N -1,7 C -1,0 C 21,7 km/h
03.04.2013 01:00 0,9 C 83 % 1008,8 hPa 0,0 l/m 8,4 km/h N -1,7 C -1,0 C 19,3 km/h
03.04.2013 02:00 0,4 C 85 % 1008,8 hPa 0,0 l/m 8,4 km/h N -1,8 C -1,5 C 19,7 km/h
03.04.2013 03:00 0,2 C 84 % 1008,7 hPa 0,0 l/m 10,4 km/h N -2,1 C -3,5 C 23,3 km/h
03.04.2013 04:00 0,1 C 83 % 1008,7 hPa 0,0 l/m 10,0 km/h N -2,5 C -3,4 C 22,5 km/h
03.04.2013 05:00 -0,1 C 82 % 1008,7 hPa 0,0 l/m 12,0 km/h N -2,7 C -5,0 C 24,5 km/h
03.04.2013 06:00 -0,2 C 81 % 1008,7 hPa 0,0 l/m 11,4 km/h N -3,0 C -4,7 C 26,1 km/h
03.04.2013 07:00 -0,2 C 81 % 1009,0 hPa 0,0 l/m 13,6 km/h N -3,1 C -6,3 C 27,4 km/h
03.04.2013 08:00 -0,1 C 81 % 1009,4 hPa 0,0 l/m 13,2 km/h N -3,0 C -6,0 C 27,4 km/h
03.04.2013 09:00 0,0 C 81 % 1009,8 hPa 0,0 l/m 14,1 km/h N -2,9 C -6,4 C 29,4 km/h
03.04.2013 10:00 0,2 C 81 % 1010,2 hPa 0,0 l/m 12,7 km/h N -2,6 C -5,2 C 24,9 km/h
03.04.2013 11:00 0,4 C 82 % 1010,4 hPa 1,8 l/m 13,2 km/h N -2,4 C -5,3 C 26,6 km/h
03.04.2013 12:00 0,7 C 83 % 1010,3 hPa 0,5 l/m 13,0 km/h N -1,8 C -4,9 C 26,1 km/h
03.04.2013 13:00 1,0 C 84 % 1010,1 hPa 0,3 l/m 12,3 km/h N -1,4 C -4,0 C 23,7 km/h
03.04.2013 14:00 1,2 C 85 % 1010,2 hPa 0,0 l/m 10,9 km/h N -1,1 C -2,8 C 22,1 km/h
03.04.2013 15:00 1,5 C 85 % 1010,2 hPa 0,0 l/m 11,6 km/h N -0,7 C -2,9 C 24,5 km/h
03.04.2013 16:00 1,5 C 85 % 1010,5 hPa 0,3 l/m 10,1 km/h N -0,7 C -1,8 C 21,7 km/h
03.04.2013 17:00 1,6 C 85 % 1010,6 hPa 0,0 l/m 11,0 km/h N -0,7 C -2,4 C 23,3 km/h
03.04.2013 18:00 1,4 C 85 % 1010,9 hPa 0,0 l/m 9,0 km/h N -0,9 C -1,1 C 21,7 km/h
03.04.2013 19:00 1,3 C 84 % 1011,3 hPa 0,0 l/m 9,4 km/h N -1,1 C -1,5 C 21,7 km/h
03.04.2013 20:00 1,3 C 84 % 1011,4 hPa 0,0 l/m 9,1 km/h N -1,2 C -1,3 C 23,3 km/h
03.04.2013 21:00 1,3 C 82 % 1011,7 hPa 0,0 l/m 10,4 km/h N -1,4 C -2,3 C 25,4 km/h
03.04.2013 22:00 1,3 C 80 % 1011,6 hPa 0,0 l/m 9,4 km/h N -1,7 C -1,5 C 20,9 km/h
03.04.2013 23:00 1,2 C 80 % 1011,7 hPa 0,0 l/m 8,3 km/h N -1,9 C -0,6 C 20,9 km/h
04.04.2013 00:00 1,2 C 80 % 1011,5 hPa 0,0 l/m 9,6 km/h N -1,9 C -1,7 C 21,3 km/h
04.04.2013 01:00 1,1 C 79 % 1011,0 hPa 0,0 l/m 10,8 km/h N -2,1 C -2,9 C 23,7 km/h
04.04.2013 02:00 1,0 C 79 % 1010,9 hPa 0,0 l/m 9,8 km/h N -2,2 C -2,1 C 20,9 km/h
04.04.2013 03:00 1,0 C 79 % 1010,7 hPa 0,0 l/m 8,1 km/h N -2,3 C -0,7 C 19,3 km/h
04.04.2013 04:00 0,9 C 79 % 1010,6 hPa 0,0 l/m 7,1 km/h N -2,3 C 0,2 C 16,5 km/h
04.04.2013 05:00 0,9 C 79 % 1010,5 hPa 0,0 l/m 8,3 km/h N -2,3 C -1,1 C 18,5 km/h
04.04.2013 06:00 0,8 C 79 % 1010,6 hPa 0,0 l/m 6,9 km/h N -2,4 C 0,3 C 16,5 km/h
04.04.2013 07:00 0,9 C 79 % 1010,8 hPa 0,0 l/m 7,3 km/h N -2,4 C -0,1 C 17,3 km/h
04.04.2013 08:00 1,1 C 79 % 1010,7 hPa 0,0 l/m 7,7 km/h N -2,1 C -0,2 C 18,5 km/h
04.04.2013 09:00 1,6 C 78 % 1010,9 hPa 0,0 l/m 7,7 km/h N -1,9 C 0,4 C 16,9 km/h
04.04.2013 10:00 2,4 C 76 % 1011,0 hPa 0,0 l/m 8,5 km/h N -1,5 C 0,4 C 19,7 km/h
04.04.2013 11:00 3,2 C 73 % 1011,0 hPa 0,0 l/m 7,3 km/h N -1,2 C 2,4 C 16,5 km/h
04.04.2013 12:00 4,8 C 70 % 1010,8 hPa 0,0 l/m 8,5 km/h N -0,3 C 2,9 C 18,5 km/h
04.04.2013 13:00 5,8 C 67 % 1010,5 hPa 0,0 l/m 7,8 km/h N 0,0 C 4,6 C 18,5 km/h
04.04.2013 14:00 6,5 C 63 % 1010,5 hPa 0,0 l/m 6,4 km/h N 0,0 C 6,2 C 16,9 km/h
04.04.2013 15:00 7,0 C 62 % 1010,3 hPa 0,0 l/m 4,9 km/h N 0,1 C 7,0 C 14,9 km/h
04.04.2013 16:00 7,1 C 62 % 1010,2 hPa 0,0 l/m 4,1 km/h N 0,2 C 7,1 C 12,1 km/h
04.04.2013 17:00 6,6 C 63 % 1009,8 hPa 0,0 l/m 3,4 km/h N 0,0 C 6,6 C 8,4 km/h
04.04.2013 18:00 5,8 C 65 % 1009,3 hPa 0,0 l/m 1,4 km/h N -0,3 C 5,8 C 5,2 km/h
04.04.2013 19:00 5,5 C 68 % 1009,6 hPa 0,0 l/m 1,1 km/h N 0,0 C 5,5 C 5,6 km/h
04.04.2013 20:00 5,2 C 71 % 1010,2 hPa 0,0 l/m 0,2 km/h N 0,3 C 5,2 C 3,2 km/h
04.04.2013 21:00 4,8 C 73 % 1010,3 hPa 0,0 l/m 0,0 km/h N 0,4 C 4,8 C 2,0 km/h
04.04.2013 22:00 4,5 C 75 % 1010,0 hPa 0,0 l/m 0,0 km/h N 0,3 C 4,5 C 0,8 km/h
04.04.2013 23:00 4,3 C 76 % 1009,5 hPa 0,0 l/m 0,0 km/h N 0,4 C 4,3 C 1,2 km/h
05.04.2013 00:00 4,0 C 78 % 1009,1 hPa 0,0 l/m 0,0 km/h N 0,6 C 4,0 C 1,6 km/h
05.04.2013 01:00 3,7 C 79 % 1008,6 hPa 0,0 l/m 0,3 km/h N 0,4 C 3,7 C 3,2 km/h
05.04.2013 02:00 3,2 C 79 % 1007,7 hPa 0,0 l/m 0,3 km/h N -0,1 C 3,2 C 4,0 km/h
05.04.2013 03:00 2,9 C 80 % 1006,9 hPa 0,0 l/m 0,9 km/h N -0,2 C 2,9 C 6,8 km/h
05.04.2013 04:00 2,7 C 82 % 1006,2 hPa 0,0 l/m 0,2 km/h N -0,1 C 2,7 C 3,7 km/h
05.04.2013 05:00 2,5 C 83 % 1005,4 hPa 0,0 l/m 0,0 km/h N -0,1 C 2,5 C 0,4 km/h
05.04.2013 06:00 2,7 C 84 % 1004,6 hPa 0,0 l/m 0,0 km/h N 0,3 C 2,7 C 0,8 km/h
05.04.2013 07:00 3,3 C 85 % 1004,4 hPa 0,0 l/m 1,7 km/h N 1,0 C 3,3 C 10,4 km/h
05.04.2013 08:00 4,2 C 84 % 1004,4 hPa 0,0 l/m 0,9 km/h N 1,7 C 4,2 C 5,2 km/h
05.04.2013 09:00 5,5 C 81 % 1004,3 hPa 0,0 l/m 2,8 km/h N 2,5 C 5,5 C 12,1 km/h
05.04.2013 10:00 6,1 C 80 % 1004,4 hPa 0,0 l/m 3,6 km/h N 2,8 C 6,1 C 17,3 km/h
05.04.2013 11:00 6,7 C 79 % 1004,2 hPa 0,0 l/m 3,1 km/h N 3,2 C 6,7 C 12,9 km/h
05.04.2013 12:00 7,7 C 76 % 1003,8 hPa 0,0 l/m 5,4 km/h N 3,6 C 7,7 C 22,1 km/h
05.04.2013 13:00 7,6 C 76 % 1003,7 hPa 0,0 l/m 4,7 km/h N 3,6 C 7,6 C 19,3 km/h
05.04.2013 14:00 7,8 C 77 % 1003,3 hPa 0,0 l/m 5,1 km/h N 4,0 C 7,8 C 18,9 km/h
05.04.2013 15:00 7,6 C 78 % 1003,3 hPa 0,0 l/m 3,6 km/h N 4,0 C 7,6 C 14,1 km/h
05.04.2013 16:00 7,7 C 77 % 1003,6 hPa 0,0 l/m 2,4 km/h N 3,9 C 7,7 C 10,9 km/h
05.04.2013 17:00 7,5 C 79 % 1004,0 hPa 0,0 l/m 0,4 km/h N 4,0 C 7,5 C 4,0 km/h
05.04.2013 18:00 7,3 C 80 % 1004,5 hPa 0,0 l/m 0,1 km/h N 3,9 C 7,3 C 1,2 km/h
05.04.2013 19:00 5,9 C 81 % 1005,4 hPa 0,0 l/m 5,1 km/h N 2,9 C 5,7 C 14,1 km/h
05.04.2013 20:00 4,2 C 84 % 1006,6 hPa 0,0 l/m 4,1 km/h N 1,8 C 4,2 C 13,3 km/h
05.04.2013 21:00 3,6 C 85 % 1007,5 hPa 0,0 l/m 6,3 km/h N 1,3 C 3,0 C 16,5 km/h
05.04.2013 22:00 3,4 C 85 % 1007,9 hPa 0,0 l/m 4,6 km/h N 1,1 C 3,3 C 15,3 km/h
05.04.2013 23:00 3,3 C 85 % 1008,4 hPa 0,0 l/m 6,5 km/h N 1,0 C 2,9 C 17,7 km/h
06.04.2013 00:00 3,3 C 84 % 1008,8 hPa 0,0 l/m 4,6 km/h N 0,9 C 3,3 C 12,1 km/h
06.04.2013 01:00 3,4 C 84 % 1009,2 hPa 0,0 l/m 5,5 km/h N 1,0 C 3,4 C 14,1 km/h
06.04.2013 02:00 3,4 C 84 % 1009,5 hPa 0,0 l/m 7,2 km/h N 1,0 C 2,4 C 18,1 km/h
06.04.2013 03:00 3,4 C 84 % 1010,0 hPa 0,0 l/m 6,6 km/h N 0,9 C 2,6 C 16,1 km/h
06.04.2013 04:00 3,2 C 84 % 1010,4 hPa 0,0 l/m 4,1 km/h N 0,8 C 3,2 C 9,7 km/h
06.04.2013 05:00 3,1 C 84 % 1010,8 hPa 0,0 l/m 2,9 km/h N 0,7 C 3,1 C 9,3 km/h
06.04.2013 06:00 3,1 C 85 % 1011,2 hPa 0,0 l/m 4,0 km/h N 0,9 C 3,1 C 10,1 km/h
06.04.2013 07:00 3,2 C 85 % 1011,7 hPa 0,0 l/m 4,6 km/h N 0,9 C 3,2 C 11,3 km/h
06.04.2013 08:00 3,5 C 83 % 1012,3 hPa 0,0 l/m 5,3 km/h N 0,9 C 3,5 C 12,1 km/h
06.04.2013 09:00 3,9 C 81 % 1012,8 hPa 0,0 l/m 8,3 km/h N 1,0 C 2,3 C 19,3 km/h
06.04.2013 10:00 4,2 C 80 % 1013,5 hPa 0,0 l/m 9,1 km/h N 1,0 C 1,9 C 19,7 km/h
06.04.2013 11:00 4,3 C 79 % 1014,2 hPa 0,0 l/m 9,3 km/h N 1,0 C 1,8 C 19,3 km/h
06.04.2013 12:00 5,3 C 75 % 1014,3 hPa 0,0 l/m 10,8 km/h N 1,2 C 1,9 C 22,9 km/h
06.04.2013 13:00 5,8 C 71 % 1014,5 hPa 0,0 l/m 9,8 km/h N 1,0 C 3,1 C 20,9 km/h
06.04.2013 14:00 5,9 C 71 % 1014,7 hPa 0,0 l/m 9,1 km/h N 1,1 C 3,7 C 20,9 km/h
06.04.2013 15:00 5,7 C 73 % 1014,8 hPa 0,0 l/m 7,4 km/h N 1,2 C 4,8 C 17,7 km/h
06.04.2013 16:00 6,0 C 72 % 1015,0 hPa 0,0 l/m 8,5 km/h N 1,2 C 4,3 C 18,5 km/h
06.04.2013 17:00 6,3 C 71 % 1015,1 hPa 0,0 l/m 7,7 km/h N 1,3 C 5,2 C 17,3 km/h
06.04.2013 18:00 5,8 C 70 % 1015,5 hPa 0,0 l/m 6,9 km/h N 0,8 C 5,3 C 16,9 km/h
06.04.2013 19:00 5,4 C 71 % 1016,2 hPa 0,0 l/m 4,9 km/h N 0,5 C 5,4 C 12,1 km/h
06.04.2013 20:00 5,0 C 73 % 1017,0 hPa 0,0 l/m 4,7 km/h N 0,5 C 5,0 C 12,1 km/h
06.04.2013 21:00 4,8 C 75 % 1017,6 hPa 0,0 l/m 5,1 km/h N 0,6 C 4,8 C 14,5 km/h
06.04.2013 22:00 4,5 C 76 % 1018,1 hPa 0,0 l/m 5,0 km/h N 0,6 C 4,5 C 11,7 km/h
06.04.2013 23:00 4,3 C 77 % 1018,3 hPa 0,0 l/m 5,4 km/h N 0,6 C 4,3 C 12,1 km/h
07.04.2013 00:00 4,1 C 78 % 1018,6 hPa 0,0 l/m 5,2 km/h N 0,6 C 4,1 C 13,3 km/h
07.04.2013 01:00 3,9 C 78 % 1018,5 hPa 0,0 l/m 3,8 km/h N 0,5 C 3,9 C 10,9 km/h
07.04.2013 02:00 3,8 C 79 % 1018,5 hPa 0,0 l/m 4,2 km/h N 0,5 C 3,8 C 12,9 km/h
07.04.2013 03:00 3,6 C 81 % 1018,5 hPa 0,0 l/m 3,0 km/h N 0,6 C 3,6 C 8,4 km/h
07.04.2013 04:00 3,3 C 83 % 1018,4 hPa 0,0 l/m 3,5 km/h N 0,6 C 3,3 C 8,9 km/h
07.04.2013 05:00 3,1 C 84 % 1018,2 hPa 0,0 l/m 3,1 km/h N 0,7 C 3,1 C 8,9 km/h
07.04.2013 06:00 3,0 C 84 % 1018,2 hPa 0,0 l/m 1,6 km/h N 0,6 C 3,0 C 6,8 km/h
07.04.2013 07:00 3,1 C 83 % 1018,5 hPa 0,0 l/m 4,4 km/h N 0,4 C 3,1 C 10,9 km/h
07.04.2013 08:00 3,1 C 81 % 1018,7 hPa 0,0 l/m 6,0 km/h N 0,2 C 2,9 C 16,9 km/h
07.04.2013 09:00 3,1 C 80 % 1019,2 hPa 0,0 l/m 7,4 km/h N -0,1 C 2,1 C 19,3 km/h
07.04.2013 10:00 3,3 C 80 % 1019,4 hPa 0,0 l/m 5,9 km/h N 0,1 C 3,3 C 14,9 km/h
07.04.2013 11:00 3,4 C 79 % 1019,5 hPa 0,0 l/m 6,6 km/h N 0,1 C 3,1 C 16,9 km/h
07.04.2013 12:00 3,5 C 80 % 1019,1 hPa 0,0 l/m 7,4 km/h N 0,3 C 2,5 C 18,1 km/h
07.04.2013 13:00 3,8 C 79 % 1018,8 hPa 0,0 l/m 8,2 km/h N 0,5 C 2,2 C 18,1 km/h
07.04.2013 14:00 4,0 C 79 % 1018,5 hPa 0,0 l/m 8,1 km/h N 0,6 C 2,5 C 18,9 km/h
07.04.2013 15:00 4,3 C 77 % 1017,8 hPa 0,0 l/m 9,8 km/h N 0,6 C 1,5 C 21,3 km/h
07.04.2013 16:00 4,9 C 72 % 1017,3 hPa 0,0 l/m 10,1 km/h N 0,3 C 1,9 C 22,1 km/h
07.04.2013 17:00 4,8 C 71 % 1017,1 hPa 0,0 l/m 10,6 km/h N -0,1 C 1,4 C 22,1 km/h
07.04.2013 18:00 4,4 C 71 % 1017,2 hPa 0,0 l/m 8,4 km/h N -0,3 C 2,8 C 20,1 km/h
07.04.2013 19:00 4,3 C 71 % 1017,1 hPa 0,0 l/m 8,1 km/h N -0,5 C 2,7 C 18,5 km/h
07.04.2013 20:00 3,9 C 72 % 1017,3 hPa 0,0 l/m 6,6 km/h N -0,7 C 3,5 C 18,5 km/h
07.04.2013 21:00 3,7 C 73 % 1017,4 hPa 0,0 l/m 6,2 km/h N -0,7 C 3,4 C 15,3 km/h
07.04.2013 22:00 3,5 C 73 % 1017,2 hPa 0,0 l/m 4,5 km/h N -0,9 C 3,5 C 13,3 km/h
07.04.2013 23:00 3,2 C 74 % 1017,0 hPa 0,0 l/m 4,6 km/h N -0,9 C 3,2 C 12,5 km/h
Min-Datum _ 01.04.13 01.04.13 05.04.13 - 01.04.13 - 01.04.13 03.04.13 01.04.13
_ Min-Zeit 04:15 13:45 14:45 - 20:00 - 14:00 09:45 23:45
Minimum _ -0,5 C 56 % 1003,2 hPa - 0,0 km/h - -3,8 C -7,2 C 0,0 km/h
Max-Datum _ 05.04.13 02.04.13 07.04.13 03.04.13 03.04.13 - 05.04.13 05.04.13 03.04.13
_ Max-Zeit 14:15 20:30 10:45 11:15 09:45 - 14:15 12:45 09:45
Maximum _ 8,0 C 85 % 1019,5 hPa 1,8 l/m 15,5 km/h
N
- 4,1 C 7,9 C 38,6 km/h
N
Durchschnitt _ 3,1 C 77 % 1011,0 hPa #3,4 l/m 5,5 km/h N -0,5 C 2,1 C 14,2 km/h